Airfield :
LOGIN :

Register | Disclaimer

   EN    FR    IT 

 










Legend :    VFR   Marginal VFR   IFR   Intensive IFR   Very Intensive IFR
Visi :
Ceiling :
>= 8 km
>= 3000ft
5 to 8 km
1000 to 3000 ft
1500m to 5 km
500 to 1000 ft
800 to 1500m
200 to 500 ft
< 800m
< 200 ft
Symbols :   Thunderstorms  Fog  Heavy snow  Heavy precipitations  Wind > 20 kt
SIGMETs :     Misc.  Thunderstorms  Icing  Turbulence  Mountain Waves  Volcanic Ashes







- Airport Elevation : 12 ft
- IATA code : NCE
- Download approach charts


LFMN - Nice

CURRENT METAR :
  • 221230Z 20006KT 9999 FEW033 SCT230 17/08 Q1019 NOSIG

EXPIRED METARs :
  • 221200Z 20005KT 9999 FEW040 SCT230 17/08 Q1019 NOSIG
  • 221130Z 18003KT 9999 FEW040 SCT230 17/06 Q1019 NOSIG
  • 221100Z VRB03KT 9999 FEW040 SCT230 16/05 Q1019 NOSIG
  • 221030Z 33006KT 9999 FEW040 SCT230 16/05 Q1019 NOSIG
  • 221000Z 33008KT 9999 FEW040 SCT230 14/05 Q1020 NOSIG

TAF TAF LFMN
Valid from the 22 at 09:00 until the 23 at 15:00 UTC


220800Z 2209/2315 33010KT 9999 FEW040
BECMG 2211/2213 18006KT SCT030
PROB30
TEMPO 2211/2217 BKN025
BECMG 2217/2219 33010KT
BECMG 2310/2312 20010KT
ATIS : +33 4 93 17 21 16
No reported NOTAMs for that airfield.



MET'MAP, your aeronautical weather chart ! - Copyright ORBIFLY December 2007 - Disclaimer

ORBIFLY MET'MAP TEAM :

Programming & Development : Alexandra Zaïnal
Concept & Development : Baudouin d'Aumeries
Co-Development & Prog : Marc-Olivier Méhu
Technical & hardware support : Manuel Goepfert

Contact : metmap@orbifly.com




SOURCES & CREDITS :

   NOAA